createdAt,value
2023-01-30T00:00:37.394Z,44.00
2023-01-30T00:03:03.911Z,49.25
2023-01-30T00:05:30.374Z,44.00
2023-01-30T00:07:57.184Z,44.80
2023-01-30T00:10:26.032Z,45.00
2023-01-30T00:12:52.730Z,45.50
2023-01-30T00:15:19.266Z,45.25
2023-01-30T00:17:45.802Z,42.80
2023-01-30T00:20:14.790Z,42.00
2023-01-30T00:22:49.237Z,47.25
2023-01-30T00:25:19.096Z,45.00
2023-01-30T00:27:45.675Z,43.20
2023-01-30T00:30:12.399Z,40.40
2023-01-30T00:32:38.872Z,43.00
2023-01-30T00:35:06.976Z,42.50
2023-01-30T00:37:33.447Z,39.60
2023-01-30T00:39:59.917Z,38.80
2023-01-30T00:42:44.876Z,38.50
2023-01-30T00:45:30.771Z,43.20
2023-01-30T00:47:57.872Z,38.00
2023-01-30T00:50:24.374Z,40.25
2023-01-30T00:52:51.244Z,43.33
2023-01-30T00:55:17.983Z,42.60
2023-01-30T00:57:44.868Z,38.00
2023-01-30T01:00:12.096Z,40.25
2023-01-30T01:02:38.674Z,37.75
2023-01-30T01:05:05.397Z,39.00
2023-01-30T01:07:31.866Z,40.75
2023-01-30T01:09:59.298Z,42.50
2023-01-30T01:12:26.009Z,40.50
2023-01-30T01:14:52.482Z,42.60
2023-01-30T01:17:19.168Z,40.25
2023-01-30T01:19:45.701Z,40.50
2023-01-30T01:22:12.226Z,39.75
2023-01-30T01:24:38.966Z,38.67
2023-01-30T01:27:05.513Z,40.00
2023-01-30T01:29:32.014Z,38.00
2023-01-30T01:31:58.771Z,39.75
2023-01-30T01:34:25.531Z,39.00
2023-01-30T01:36:54.292Z,39.50
2023-01-30T01:39:21.338Z,36.00
2023-01-30T01:41:48.186Z,36.50
2023-01-30T01:44:15.748Z,39.75
2023-01-30T01:46:42.580Z,41.00
2023-01-30T01:49:17.583Z,38.80
2023-01-30T01:51:51.937Z,38.50
2023-01-30T01:54:21.878Z,43.50
2023-01-30T01:56:49.302Z,40.50
2023-01-30T01:59:31.335Z,40.00
2023-01-30T02:02:01.291Z,42.00
2023-01-30T02:05:02.125Z,38.00
2023-01-30T02:07:40.253Z,40.75
2023-01-30T02:10:08.551Z,39.00
2023-01-30T02:12:35.064Z,40.80
2023-01-30T02:15:01.962Z,38.00
2023-01-30T02:17:28.490Z,40.00
2023-01-30T02:19:54.967Z,36.60
2023-01-30T02:22:21.459Z,39.00
2023-01-30T02:25:11.263Z,39.00
2023-01-30T02:27:58.987Z,37.80
2023-01-30T02:30:43.934Z,38.00
2023-01-30T02:33:24.478Z,39.40
2023-01-30T02:36:17.178Z,37.20
2023-01-30T02:39:02.675Z,40.50
2023-01-30T02:41:49.180Z,39.80
2023-01-30T02:44:39.031Z,41.25
2023-01-30T02:47:12.461Z,36.80
2023-01-30T02:49:39.012Z,42.60
2023-01-30T02:52:06.935Z,38.40
2023-01-30T02:54:33.482Z,38.75
2023-01-30T02:57:00.614Z,39.75
2023-01-30T02:59:27.063Z,39.50
2023-01-30T03:01:56.630Z,38.00
2023-01-30T03:04:52.299Z,38.50
2023-01-30T03:07:18.960Z,40.50
2023-01-30T03:09:45.492Z,37.20
2023-01-30T03:12:19.405Z,35.00
2023-01-30T03:14:46.335Z,40.25
2023-01-30T03:17:13.446Z,40.00
2023-01-30T03:19:40.237Z,44.00
2023-01-30T03:22:06.811Z,39.20
2023-01-30T03:24:33.585Z,38.75
2023-01-30T03:27:09.806Z,38.40
2023-01-30T03:29:36.600Z,38.00
2023-01-30T03:32:03.276Z,37.75
2023-01-30T03:34:32.319Z,37.00
2023-01-30T03:36:58.919Z,35.80
2023-01-30T03:39:25.638Z,39.50
2023-01-30T03:41:53.012Z,41.50
2023-01-30T03:44:19.622Z,40.00
2023-01-30T03:46:46.246Z,37.50
2023-01-30T03:49:12.858Z,41.50
2023-01-30T03:51:39.459Z,37.80
2023-01-30T03:54:05.926Z,38.40
2023-01-30T03:56:32.532Z,41.25
2023-01-30T03:58:59.176Z,38.00
2023-01-30T04:01:25.915Z,41.25
2023-01-30T04:03:52.496Z,39.80
2023-01-30T04:06:19.006Z,38.40
2023-01-30T04:08:45.577Z,41.25
2023-01-30T04:11:12.171Z,43.00
2023-01-30T04:13:38.726Z,36.75
2023-01-30T04:16:15.896Z,40.80
2023-01-30T04:18:42.609Z,38.75
2023-01-30T04:21:09.072Z,40.50
2023-01-30T04:23:35.801Z,38.50
2023-01-30T04:26:02.567Z,41.00
2023-01-30T04:28:29.336Z,38.25
2023-01-30T04:30:55.904Z,34.20
2023-01-30T04:33:22.453Z,39.75
2023-01-30T04:35:55.321Z,37.00
2023-01-30T04:38:22.929Z,38.00
2023-01-30T04:40:50.438Z,39.20
2023-01-30T04:43:17.076Z,35.20
2023-01-30T04:45:46.948Z,41.00
2023-01-30T04:48:13.593Z,39.80
2023-01-30T04:50:40.987Z,34.25
2023-01-30T04:53:07.772Z,37.40
2023-01-30T04:55:34.707Z,37.50
2023-01-30T04:58:01.462Z,38.00
2023-01-30T05:00:28.768Z,35.25
2023-01-30T05:02:56.300Z,36.40
2023-01-30T05:05:23.505Z,39.25
2023-01-30T05:07:50.094Z,37.00
2023-01-30T05:10:17.128Z,35.00
2023-01-30T05:12:43.925Z,36.20
2023-01-30T05:15:11.290Z,40.00
2023-01-30T05:17:38.535Z,36.33
2023-01-30T05:20:06.104Z,37.60
2023-01-30T05:22:32.754Z,38.50
2023-01-30T05:24:59.304Z,38.00
2023-01-30T05:27:26.290Z,36.60
2023-01-30T05:29:52.959Z,37.00
2023-01-30T05:32:20.136Z,40.20
2023-01-30T05:34:48.745Z,40.80
2023-01-30T05:37:15.531Z,39.00
2023-01-30T05:39:42.048Z,42.00
2023-01-30T05:42:08.520Z,38.40
2023-01-30T05:44:35.041Z,36.50
2023-01-30T05:47:01.597Z,40.00
2023-01-30T05:49:28.091Z,39.75
2023-01-30T05:51:54.654Z,41.00
2023-01-30T05:54:21.393Z,42.20
2023-01-30T05:56:51.351Z,42.60
2023-01-30T05:59:21.369Z,42.00
2023-01-30T06:01:47.924Z,36.60
2023-01-30T06:04:14.425Z,39.00
2023-01-30T06:06:40.920Z,43.00
2023-01-30T06:09:07.681Z,40.50
2023-01-30T06:11:34.167Z,40.20
2023-01-30T06:14:00.791Z,38.00
2023-01-30T06:16:27.373Z,36.00
2023-01-30T06:18:54.010Z,37.50
2023-01-30T06:21:20.555Z,35.75
2023-01-30T06:23:47.156Z,43.00
2023-01-30T06:26:13.955Z,39.33
2023-01-30T06:28:40.496Z,45.50
2023-01-30T06:31:08.112Z,35.00
2023-01-30T06:33:34.835Z,36.60
2023-01-30T06:36:01.327Z,41.00
2023-01-30T06:38:28.097Z,42.00
2023-01-30T06:40:54.607Z,44.75
2023-01-30T06:43:21.124Z,41.00
2023-01-30T06:45:47.720Z,37.50
2023-01-30T06:48:14.304Z,45.00
2023-01-30T06:50:40.824Z,43.40
2023-01-30T06:53:08.483Z,39.50
2023-01-30T06:55:36.100Z,38.25
2023-01-30T06:58:20.661Z,37.00
2023-01-30T07:00:47.160Z,39.33
2023-01-30T07:03:14.863Z,40.20
2023-01-30T07:05:42.033Z,39.80
2023-01-30T07:08:08.833Z,37.00
2023-01-30T07:10:36.047Z,38.25
2023-01-30T07:13:02.962Z,39.00
2023-01-30T07:15:29.910Z,37.00
2023-01-30T07:17:56.385Z,38.00
2023-01-30T07:20:22.980Z,39.75
2023-01-30T07:22:50.633Z,36.00
2023-01-30T07:25:17.452Z,36.00
2023-01-30T07:27:44.261Z,41.00
2023-01-30T07:30:11.127Z,35.25
2023-01-30T07:32:37.641Z,40.20
2023-01-30T07:35:05.944Z,39.00
2023-01-30T07:37:32.609Z,33.50
2023-01-30T07:39:59.101Z,40.50
2023-01-30T07:42:25.697Z,37.50
2023-01-30T07:44:52.178Z,35.50
2023-01-30T07:47:20.258Z,35.00
2023-01-30T07:49:46.763Z,38.00
2023-01-30T07:52:13.264Z,35.60
2023-01-30T07:54:39.737Z,34.80
2023-01-30T07:57:06.215Z,40.25
2023-01-30T07:59:32.746Z,33.40
2023-01-30T08:01:59.254Z,36.50
2023-01-30T08:04:25.752Z,34.40
2023-01-30T08:06:52.283Z,37.00
2023-01-30T08:09:18.815Z,34.00
2023-01-30T08:11:45.281Z,37.20
2023-01-30T08:14:11.753Z,36.80
2023-01-30T08:16:39.239Z,35.60
2023-01-30T08:19:06.413Z,34.00
2023-01-30T08:21:33.045Z,35.00
2023-01-30T08:24:01.010Z,34.00
2023-01-30T08:26:28.021Z,43.60
2023-01-30T08:28:56.153Z,71.33
2023-01-30T08:31:22.844Z,79.75
2023-01-30T08:33:49.420Z,46.00
2023-01-30T08:36:16.002Z,50.60
2023-01-30T08:38:42.665Z,50.75
2023-01-30T08:41:09.757Z,63.25
2023-01-30T08:43:36.426Z,82.20
2023-01-30T08:46:03.167Z,45.60
2023-01-30T08:48:36.737Z,49.00
2023-01-30T08:51:06.458Z,48.00
2023-01-30T08:53:33.421Z,52.75
2023-01-30T08:55:59.897Z,62.50
2023-01-30T08:58:26.443Z,59.25
2023-01-30T09:00:53.015Z,42.00
2023-01-30T09:03:20.043Z,39.00
2023-01-30T09:05:46.814Z,41.25
2023-01-30T09:08:13.326Z,34.33
2023-01-30T09:10:39.944Z,35.00
2023-01-30T09:13:08.565Z,39.25
2023-01-30T09:15:35.058Z,42.00
2023-01-30T09:18:01.581Z,36.50
2023-01-30T09:20:28.104Z,33.50
2023-01-30T09:22:54.764Z,33.40
2023-01-30T09:25:21.307Z,34.75
2023-01-30T09:27:48.393Z,34.75
2023-01-30T09:30:14.995Z,32.67
2023-01-30T09:32:41.474Z,41.25
2023-01-30T09:35:08.605Z,31.00
2023-01-30T09:37:35.267Z,32.00
2023-01-30T09:40:01.781Z,33.00
2023-01-30T09:42:46.361Z,30.80
2023-01-30T09:45:31.621Z,35.00
2023-01-30T09:48:01.732Z,31.00
2023-01-30T09:50:28.944Z,32.40
2023-01-30T09:52:57.843Z,32.00
2023-01-30T09:55:25.680Z,28.60
2023-01-30T09:57:52.846Z,27.40
2023-01-30T10:00:19.854Z,40.00
2023-01-30T10:03:06.294Z,34.75
2023-01-30T10:05:46.335Z,32.75
2023-01-30T10:08:18.676Z,30.00
2023-01-30T10:11:10.412Z,24.40
2023-01-30T10:13:37.244Z,34.00
2023-01-30T10:16:03.790Z,29.00
2023-01-30T10:18:48.868Z,34.00
2023-01-30T10:21:15.328Z,30.60
2023-01-30T10:23:44.849Z,31.80
2023-01-30T10:26:14.676Z,29.60
2023-01-30T10:28:47.621Z,29.50
2023-01-30T10:31:19.720Z,34.40
2023-01-30T10:33:57.998Z,32.50
2023-01-30T10:36:32.821Z,27.80
2023-01-30T10:39:01.264Z,25.00
2023-01-30T10:41:30.851Z,21.50
2023-01-30T10:44:03.072Z,20.50
2023-01-30T10:46:29.589Z,30.40
2023-01-30T10:49:02.712Z,24.00
2023-01-30T10:51:29.304Z,27.67
2023-01-30T10:54:03.314Z,29.00
2023-01-30T10:56:29.789Z,38.50
2023-01-30T10:59:11.667Z,31.75
2023-01-30T11:01:45.391Z,26.00
2023-01-30T11:04:23.260Z,31.00
2023-01-30T11:06:50.696Z,32.40
2023-01-30T11:09:17.211Z,27.00
2023-01-30T11:11:51.967Z,19.00
2023-01-30T11:14:18.748Z,22.20
2023-01-30T11:16:48.327Z,19.00
2023-01-30T11:19:21.878Z,21.00
2023-01-30T11:21:53.680Z,22.40
2023-01-30T11:24:24.563Z,19.40
2023-01-30T11:26:52.652Z,20.40
2023-01-30T11:29:22.155Z,21.00
2023-01-30T11:31:50.789Z,21.40
2023-01-30T11:34:19.097Z,19.00
2023-01-30T11:36:48.546Z,20.00
2023-01-30T11:39:18.779Z,24.60
2023-01-30T11:41:54.174Z,21.00
2023-01-30T11:44:26.239Z,23.00
2023-01-30T11:46:52.792Z,26.00
2023-01-30T11:49:45.663Z,23.00
2023-01-30T11:52:08.705Z,21.40
2023-01-30T11:54:38.162Z,20.75
2023-01-30T11:57:06.411Z,22.40
2023-01-30T11:59:39.780Z,18.00
2023-01-30T12:02:15.266Z,20.40
2023-01-30T12:04:45.411Z,19.80
2023-01-30T12:07:21.603Z,20.50
2023-01-30T12:09:50.440Z,16.60
2023-01-30T12:12:29.214Z,16.40
2023-01-30T12:15:01.613Z,16.20
2023-01-30T12:17:35.301Z,19.00
2023-01-30T12:20:14.125Z,20.75
2023-01-30T12:23:03.672Z,19.75
2023-01-30T12:25:37.121Z,19.80
2023-01-30T12:28:11.559Z,18.00
2023-01-30T12:30:53.165Z,21.00
2023-01-30T12:33:19.784Z,17.60
2023-01-30T12:35:52.355Z,20.00
2023-01-30T12:38:37.410Z,20.00
2023-01-30T12:41:26.978Z,20.50
2023-01-30T12:44:06.898Z,18.40
2023-01-30T12:46:48.906Z,18.00
2023-01-30T12:49:41.062Z,17.00
2023-01-30T12:52:29.694Z,17.40
2023-01-30T12:54:59.189Z,20.50
2023-01-30T12:57:37.556Z,21.75
2023-01-30T13:00:13.016Z,20.25
2023-01-30T13:02:58.342Z,20.60
2023-01-30T13:05:43.375Z,15.00
2023-01-30T13:08:12.686Z,21.25
2023-01-30T13:10:54.362Z,16.25
2023-01-30T13:13:33.337Z,19.60
2023-01-30T13:16:10.472Z,25.25
2023-01-30T13:18:57.520Z,29.75
2023-01-30T13:21:28.571Z,23.75
2023-01-30T13:24:18.050Z,26.25
2023-01-30T13:26:45.793Z,20.40
2023-01-30T13:29:16.606Z,17.00
2023-01-30T13:31:52.306Z,17.00
2023-01-30T13:34:34.190Z,14.00
2023-01-30T13:37:07.337Z,23.40
2023-01-30T13:39:36.608Z,25.25
2023-01-30T13:42:13.700Z,19.00
2023-01-30T13:44:43.148Z,19.20
2023-01-30T13:47:24.782Z,22.20
2023-01-30T13:50:02.464Z,21.20
2023-01-30T13:52:42.022Z,19.25
2023-01-30T13:55:23.978Z,29.50
2023-01-30T13:57:54.027Z,16.00
2023-01-30T14:00:34.039Z,24.40
2023-01-30T14:03:03.400Z,26.00
2023-01-30T14:05:48.767Z,19.60
2023-01-30T14:08:22.556Z,24.80
2023-01-30T14:10:49.695Z,26.00
2023-01-30T14:13:17.726Z,17.00
2023-01-30T14:15:55.474Z,19.40
2023-01-30T14:18:27.872Z,19.25
2023-01-30T14:21:12.294Z,19.80
2023-01-30T14:23:39.813Z,24.20
2023-01-30T14:26:06.427Z,29.00
2023-01-30T14:28:32.937Z,21.25
2023-01-30T14:31:00.490Z,17.75
2023-01-30T14:33:26.958Z,18.00
2023-01-30T14:36:02.339Z,24.20
2023-01-30T14:38:32.691Z,15.40
2023-01-30T14:40:59.217Z,17.00
2023-01-30T14:43:25.715Z,19.50
2023-01-30T14:45:58.890Z,23.80
2023-01-30T14:48:36.135Z,26.00
2023-01-30T14:51:22.281Z,25.40
2023-01-30T14:53:50.799Z,22.00
2023-01-30T14:56:18.066Z,23.25
2023-01-30T14:58:52.297Z,18.00
2023-01-30T15:01:18.986Z,27.00
2023-01-30T15:03:48.320Z,27.50
2023-01-30T15:06:15.025Z,21.80
2023-01-30T15:08:43.782Z,29.25
2023-01-30T15:11:13.078Z,26.75
2023-01-30T15:13:46.546Z,28.50
2023-01-30T15:16:28.436Z,18.00
2023-01-30T15:19:02.780Z,23.00
2023-01-30T15:21:41.752Z,20.50
2023-01-30T15:24:17.417Z,29.00
2023-01-30T15:26:52.812Z,32.20
2023-01-30T15:29:22.185Z,35.60
2023-01-30T15:31:55.424Z,27.00
2023-01-30T15:34:21.971Z,28.40
2023-01-30T15:36:48.517Z,42.50
2023-01-30T15:39:22.222Z,29.00
2023-01-30T15:41:49.479Z,20.25
2023-01-30T15:44:25.463Z,34.20
2023-01-30T15:47:01.208Z,22.40
2023-01-30T15:49:54.334Z,27.80
2023-01-30T15:52:21.707Z,30.50
2023-01-30T15:54:50.091Z,15.00
2023-01-30T15:57:20.895Z,18.00
2023-01-30T15:59:47.874Z,21.40
2023-01-30T16:02:16.581Z,26.40
2023-01-30T16:04:43.187Z,14.00
2023-01-30T16:07:29.908Z,19.20
2023-01-30T16:10:06.900Z,18.40
2023-01-30T16:12:34.403Z,23.60
2023-01-30T16:15:17.089Z,20.80
2023-01-30T16:17:48.789Z,10.25
2023-01-30T16:20:16.253Z,14.00
2023-01-30T16:22:44.306Z,17.40
2023-01-30T16:25:22.130Z,11.80
2023-01-30T16:27:50.423Z,14.00
2023-01-30T16:30:24.209Z,14.75
2023-01-30T16:32:51.995Z,8.00
2023-01-30T16:35:27.090Z,13.50
2023-01-30T16:37:55.894Z,9.00
2023-01-30T16:40:26.976Z,13.60
2023-01-30T16:43:01.208Z,9.00
2023-01-30T16:45:36.754Z,10.00
2023-01-30T16:48:19.501Z,11.00
2023-01-30T16:50:47.513Z,9.60
2023-01-30T16:53:19.049Z,16.60
2023-01-30T16:56:07.746Z,9.75
2023-01-30T16:58:35.283Z,11.80
2023-01-30T17:01:06.710Z,15.00
2023-01-30T17:03:36.884Z,13.75
2023-01-30T17:06:12.651Z,12.00
2023-01-30T17:08:45.393Z,12.40
2023-01-30T17:11:28.106Z,12.80
2023-01-30T17:14:13.139Z,15.00
2023-01-30T17:16:40.645Z,12.50
2023-01-30T17:19:07.226Z,10.75
2023-01-30T17:21:54.818Z,13.20
2023-01-30T17:24:22.651Z,8.40
2023-01-30T17:27:00.389Z,12.00
2023-01-30T17:29:41.817Z,8.00
2023-01-30T17:32:13.597Z,14.50
2023-01-30T17:34:41.833Z,9.00
2023-01-30T17:37:24.345Z,9.00
2023-01-30T17:39:51.733Z,5.00
2023-01-30T17:42:22.683Z,7.40
2023-01-30T17:44:49.851Z,10.60
2023-01-30T17:47:16.995Z,10.00
2023-01-30T17:49:43.456Z,9.00
2023-01-30T17:52:12.937Z,6.40
2023-01-30T17:54:39.437Z,6.00
2023-01-30T17:57:07.009Z,5.80
2023-01-30T17:59:33.647Z,7.00
2023-01-30T18:02:00.249Z,7.40
2023-01-30T18:04:27.093Z,5.40
2023-01-30T18:06:59.550Z,8.00
2023-01-30T18:09:27.183Z,8.00
2023-01-30T18:11:57.503Z,11.00
2023-01-30T18:14:24.471Z,7.00
2023-01-30T18:16:51.574Z,3.80
2023-01-30T18:19:18.699Z,7.00
2023-01-30T18:21:45.530Z,8.00
2023-01-30T18:24:12.551Z,9.00
2023-01-30T18:26:40.500Z,14.00
2023-01-30T18:29:07.747Z,11.00
2023-01-30T18:31:34.442Z,9.00
2023-01-30T18:34:01.051Z,5.00
2023-01-30T18:36:27.583Z,11.00
2023-01-30T18:38:54.373Z,11.20
2023-01-30T18:41:22.018Z,9.00
2023-01-30T18:43:53.354Z,13.00
2023-01-30T18:46:19.917Z,11.25
2023-01-30T18:48:46.649Z,7.50
2023-01-30T18:51:17.998Z,15.00
2023-01-30T18:53:45.446Z,19.40
2023-01-30T18:56:13.313Z,7.00
2023-01-30T18:58:39.896Z,25.00
2023-01-30T19:01:11.166Z,16.00
2023-01-30T19:03:37.981Z,19.50
2023-01-30T19:06:04.715Z,16.40
2023-01-30T19:08:31.267Z,23.00
2023-01-30T19:11:29.489Z,18.00
2023-01-30T19:13:56.501Z,4.00
2023-01-30T19:16:24.093Z,7.60
2023-01-30T19:18:50.882Z,3.75
2023-01-30T19:21:17.810Z,7.00
2023-01-30T19:23:44.537Z,9.40
2023-01-30T19:26:11.032Z,8.00
2023-01-30T19:28:37.987Z,6.20
2023-01-30T19:31:09.038Z,10.40
2023-01-30T19:33:35.987Z,17.20
2023-01-30T19:36:19.349Z,10.00
2023-01-30T19:38:46.683Z,17.20
2023-01-30T19:41:14.374Z,13.00
2023-01-30T19:43:41.497Z,10.20
2023-01-30T19:46:08.371Z,13.60
2023-01-30T19:48:38.921Z,11.00
2023-01-30T19:51:20.487Z,14.75
2023-01-30T19:53:50.208Z,22.40
2023-01-30T19:56:17.066Z,16.20
2023-01-30T19:58:43.648Z,9.00
2023-01-30T20:01:14.393Z,12.00
2023-01-30T20:03:41.561Z,12.00
2023-01-30T20:06:08.167Z,11.00
2023-01-30T20:08:36.468Z,10.00
2023-01-30T20:11:05.298Z,11.50
2023-01-30T20:13:31.955Z,10.60
2023-01-30T20:16:06.105Z,11.00
2023-01-30T20:18:38.198Z,10.00
2023-01-30T20:21:09.053Z,10.00
2023-01-30T20:23:35.993Z,8.00
2023-01-30T20:26:06.224Z,8.40
2023-01-30T20:28:33.522Z,13.25
2023-01-30T20:31:00.598Z,9.40
2023-01-30T20:33:29.181Z,12.50
2023-01-30T20:36:00.084Z,12.50
2023-01-30T20:38:26.610Z,11.80
2023-01-30T20:41:00.249Z,9.20
2023-01-30T20:43:29.437Z,7.00
2023-01-30T20:46:10.651Z,6.80
2023-01-30T20:48:38.607Z,10.00
2023-01-30T20:51:06.365Z,10.60
2023-01-30T20:53:33.316Z,12.00
2023-01-30T20:56:00.670Z,10.40
2023-01-30T20:58:27.814Z,13.60
2023-01-30T21:00:54.616Z,8.40
2023-01-30T21:03:23.334Z,11.50
2023-01-30T21:05:57.557Z,9.00
2023-01-30T21:08:24.265Z,9.40
2023-01-30T21:10:50.824Z,8.33
2023-01-30T21:13:17.356Z,9.60
2023-01-30T21:15:43.889Z,7.00
2023-01-30T21:18:10.407Z,10.80
2023-01-30T21:20:36.953Z,8.75
2023-01-30T21:23:03.572Z,11.00
2023-01-30T21:25:30.651Z,8.00
2023-01-30T21:27:57.199Z,7.60
2023-01-30T21:30:23.665Z,9.40
2023-01-30T21:32:50.144Z,16.75
2023-01-30T21:35:16.804Z,9.75
2023-01-30T21:38:02.180Z,8.00
2023-01-30T21:40:47.291Z,8.50
2023-01-30T21:43:13.794Z,12.25
2023-01-30T21:45:40.574Z,13.00
2023-01-30T21:48:07.182Z,10.00
2023-01-30T21:50:33.897Z,14.50
2023-01-30T21:53:01.784Z,13.60
2023-01-30T21:55:28.317Z,14.80
2023-01-30T21:57:54.849Z,13.00
2023-01-30T22:00:21.946Z,13.00
2023-01-30T22:02:51.658Z,14.00
2023-01-30T22:05:18.470Z,12.00
2023-01-30T22:07:45.107Z,11.60
2023-01-30T22:10:11.616Z,10.20
2023-01-30T22:12:40.206Z,14.00
2023-01-30T22:15:07.701Z,11.00
2023-01-30T22:17:34.336Z,16.00
2023-01-30T22:20:01.022Z,13.60
2023-01-30T22:22:30.675Z,13.80
2023-01-30T22:24:57.175Z,11.75
2023-01-30T22:27:23.712Z,13.00
2023-01-30T22:29:50.227Z,11.25
2023-01-30T22:32:16.721Z,10.40
2023-01-30T22:34:43.206Z,11.50
2023-01-30T22:37:12.057Z,14.00
2023-01-30T22:39:39.455Z,16.25
2023-01-30T22:42:07.118Z,11.00
2023-01-30T22:44:33.607Z,8.50
2023-01-30T22:47:00.165Z,13.60
2023-01-30T22:49:26.688Z,15.00
2023-01-30T22:51:54.248Z,17.00
2023-01-30T22:54:20.933Z,15.00
2023-01-30T22:56:48.782Z,13.00
2023-01-30T22:59:16.209Z,14.80
2023-01-30T23:01:44.858Z,14.00
2023-01-30T23:04:15.705Z,10.00
2023-01-30T23:06:42.366Z,9.00
2023-01-30T23:09:10.041Z,8.00
2023-01-30T23:11:38.290Z,10.20
2023-01-30T23:14:12.351Z,11.40
2023-01-30T23:16:40.513Z,12.00
2023-01-30T23:19:07.782Z,10.00
2023-01-30T23:21:39.096Z,15.33
2023-01-30T23:24:10.331Z,11.00
2023-01-30T23:33:26.865Z,11.40
2023-01-30T23:35:53.384Z,13.75
2023-01-30T23:38:20.160Z,15.50
2023-01-30T23:40:47.838Z,11.75
2023-01-30T23:43:17.666Z,12.00
2023-01-30T23:45:44.871Z,15.75
2023-01-30T23:48:11.622Z,15.00
2023-01-30T23:50:39.837Z,13.40
2023-01-30T23:56:38.873Z,12.80
2023-01-30T23:59:05.761Z,12.60
